Current | Forecast
Updated: 6:32 AM JST on January 23, 2018
Observed at Gifu AB, Japan
Temperature 34°F
Humidity 100%
Dew Point 34°F
Wind ESE at 2 mph
Pressure 29.83 in (Rising)
Conditions Light Rain Showers
Visibility 3.7 miles
UV 0 out of 16
Clouds (FEW) : 1000 ft
Mostly Cloudy (BKN) : 2500 ft
Yesterday's Maximum 39°F
Yesterday's Minimum 36°F approx.
Yesterday's Heating Degree Days 28 approx.
Sunrise6:58 AM JST
Sunset5:11 PM JST
Moon Rise10:27 AM JST
Moon Set10:56 PM JST
Moon PhaseMoon Phase
Waxing Crescent
Raw METARSPECI RJNG 222132Z 11002KT 6000 -SHRA FEW010 BKN025 01/01 Q1010 RMK 1CU010 7CU025 A2983


Monday
. High: 75° F.
Tuesday
. High: 68° F.
Wednesday
. High: 71° F.
Thursday
. High: 71° F.
Friday
. High: 75° F.
Saturday
. High: 69° F.
Sunday
. High: 73° F.
Monday
. High: 75° F.

Units: English | Metric

Find the Weather for any City, State or Zipcode, or Country:

U.S. State List | Severe Weather | Tropical Storms | Ski Conditions
United States | Canada | Central America | South America | Asia | Europe | Australia | Africa | Islands

Weather Underground

© Copyright 2018
The Weather Company, LLC